sensor_id;sensor_type;location;lat;lon;timestamp;P1;durP1;ratioP1;P2;durP2;ratioP2
64789;SDS011;51223;51.816;5.862;2023-08-06T00:02:06;0.52;;;0.52;;
64789;SDS011;51223;51.816;5.862;2023-08-06T00:04:32;1.30;;;1.10;;
64789;SDS011;51223;51.816;5.862;2023-08-06T00:06:57;3.45;;;1.23;;
64789;SDS011;51223;51.816;5.862;2023-08-06T00:09:23;3.10;;;0.82;;
64789;SDS011;51223;51.816;5.862;2023-08-06T00:11:48;2.58;;;0.90;;
64789;SDS011;51223;51.816;5.862;2023-08-06T00:14:14;0.80;;;0.80;;
64789;SDS011;51223;51.816;5.862;2023-08-06T00:16:43;0.80;;;0.75;;
64789;SDS011;51223;51.816;5.862;2023-08-06T00:19:09;1.35;;;0.75;;
64789;SDS011;51223;51.816;5.862;2023-08-06T00:21:34;0.57;;;0.57;;
64789;SDS011;51223;51.816;5.862;2023-08-06T00:24:00;1.00;;;0.85;;
64789;SDS011;51223;51.816;5.862;2023-08-06T00:26:25;0.90;;;0.75;;
64789;SDS011;51223;51.816;5.862;2023-08-06T00:28:51;0.60;;;0.60;;
64789;SDS011;51223;51.816;5.862;2023-08-06T00:31:17;1.17;;;0.88;;
64789;SDS011;51223;51.816;5.862;2023-08-06T00:33:42;0.95;;;0.77;;
64789;SDS011;51223;51.816;5.862;2023-08-06T00:36:08;1.73;;;0.90;;
64789;SDS011;51223;51.816;5.862;2023-08-06T00:38:33;1.05;;;0.85;;
64789;SDS011;51223;51.816;5.862;2023-08-06T00:40:59;0.77;;;0.70;;
64789;SDS011;51223;51.816;5.862;2023-08-06T00:43:24;1.50;;;0.70;;
64789;SDS011;51223;51.816;5.862;2023-08-06T00:45:50;0.93;;;0.80;;
64789;SDS011;51223;51.816;5.862;2023-08-06T00:48:16;2.33;;;1.42;;
64789;SDS011;51223;51.816;5.862;2023-08-06T00:50:41;0.88;;;0.70;;
64789;SDS011;51223;51.816;5.862;2023-08-06T00:53:07;0.98;;;0.85;;
64789;SDS011;51223;51.816;5.862;2023-08-06T00:55:33;2.33;;;0.90;;
64789;SDS011;51223;51.816;5.862;2023-08-06T00:57:59;0.60;;;0.52;;
64789;SDS011;51223;51.816;5.862;2023-08-06T01:00:25;1.63;;;0.80;;
64789;SDS011;51223;51.816;5.862;2023-08-06T01:02:51;1.08;;;0.90;;
64789;SDS011;51223;51.816;5.862;2023-08-06T01:05:17;0.80;;;0.80;;
64789;SDS011;51223;51.816;5.862;2023-08-06T01:07:51;1.17;;;1.02;;
64789;SDS011;51223;51.816;5.862;2023-08-06T01:15:24;1.40;;;1.00;;
64789;SDS011;51223;51.816;5.862;2023-08-06T01:17:53;1.45;;;0.60;;
64789;SDS011;51223;51.816;5.862;2023-08-06T01:20:18;0.90;;;0.90;;
64789;SDS011;51223;51.816;5.862;2023-08-06T01:22:44;1.15;;;0.90;;
64789;SDS011;51223;51.816;5.862;2023-08-06T01:25:10;1.52;;;1.08;;
64789;SDS011;51223;51.816;5.862;2023-08-06T01:27:41;3.42;;;1.02;;
64789;SDS011;51223;51.816;5.862;2023-08-06T01:30:12;0.93;;;0.77;;
64789;SDS011;51223;51.816;5.862;2023-08-06T01:32:39;1.52;;;1.42;;
64789;SDS011;51223;51.816;5.862;2023-08-06T01:35:07;2.15;;;1.30;;
64789;SDS011;51223;51.816;5.862;2023-08-06T01:37:35;0.75;;;0.68;;
64789;SDS011;51223;51.816;5.862;2023-08-06T01:40:05;1.55;;;1.35;;
64789;SDS011;51223;51.816;5.862;2023-08-06T01:42:30;2.00;;;1.33;;
64789;SDS011;51223;51.816;5.862;2023-08-06T01:44:56;3.38;;;1.30;;
64789;SDS011;51223;51.816;5.862;2023-08-06T01:47:22;1.25;;;0.90;;
64789;SDS011;51223;51.816;5.862;2023-08-06T01:49:47;0.82;;;0.63;;
64789;SDS011;51223;51.816;5.862;2023-08-06T01:52:13;0.60;;;0.60;;
64789;SDS011;51223;51.816;5.862;2023-08-06T01:54:38;1.40;;;0.98;;
64789;SDS011;51223;51.816;5.862;2023-08-06T01:57:04;1.40;;;0.88;;
64789;SDS011;51223;51.816;5.862;2023-08-06T01:59:30;0.88;;;0.82;;
64789;SDS011;51223;51.816;5.862;2023-08-06T02:01:55;1.60;;;1.20;;
64789;SDS011;51223;51.816;5.862;2023-08-06T02:04:21;0.93;;;0.77;;
64789;SDS011;51223;51.816;5.862;2023-08-06T02:06:46;4.68;;;1.45;;
64789;SDS011;51223;51.816;5.862;2023-08-06T02:09:12;1.38;;;0.95;;
64789;SDS011;51223;51.816;5.862;2023-08-06T02:11:37;3.15;;;1.20;;
64789;SDS011;51223;51.816;5.862;2023-08-06T02:14:03;2.10;;;1.10;;
64789;SDS011;51223;51.816;5.862;2023-08-06T02:16:29;2.67;;;1.60;;
64789;SDS011;51223;51.816;5.862;2023-08-06T02:18:54;1.17;;;0.80;;
64789;SDS011;51223;51.816;5.862;2023-08-06T02:21:20;1.65;;;1.10;;
64789;SDS011;51223;51.816;5.862;2023-08-06T02:23:45;1.35;;;0.93;;
64789;SDS011;51223;51.816;5.862;2023-08-06T02:26:11;1.05;;;0.75;;
64789;SDS011;51223;51.816;5.862;2023-08-06T02:28:36;3.33;;;1.75;;
64789;SDS011;51223;51.816;5.862;2023-08-06T02:31:02;2.97;;;1.80;;
64789;SDS011;51223;51.816;5.862;2023-08-06T02:33:28;6.68;;;1.67;;
64789;SDS011;51223;51.816;5.862;2023-08-06T02:36:03;4.53;;;1.67;;
64789;SDS011;51223;51.816;5.862;2023-08-06T02:38:29;2.00;;;1.23;;
64789;SDS011;51223;51.816;5.862;2023-08-06T02:40:55;7.40;;;1.77;;
64789;SDS011;51223;51.816;5.862;2023-08-06T02:43:21;1.40;;;0.98;;
64789;SDS011;51223;51.816;5.862;2023-08-06T02:45:46;2.55;;;1.58;;
64789;SDS011;51223;51.816;5.862;2023-08-06T02:48:12;6.55;;;1.65;;
64789;SDS011;51223;51.816;5.862;2023-08-06T02:50:40;1.70;;;1.55;;
64789;SDS011;51223;51.816;5.862;2023-08-06T02:53:06;2.78;;;1.50;;
64789;SDS011;51223;51.816;5.862;2023-08-06T02:55:32;2.13;;;1.50;;
64789;SDS011;51223;51.816;5.862;2023-08-06T02:57:59;3.00;;;1.95;;
64789;SDS011;51223;51.816;5.862;2023-08-06T03:00:25;2.58;;;1.63;;
64789;SDS011;51223;51.816;5.862;2023-08-06T03:02:51;2.15;;;1.40;;
64789;SDS011;51223;51.816;5.862;2023-08-06T03:05:16;3.42;;;1.80;;
64789;SDS011;51223;51.816;5.862;2023-08-06T03:07:42;1.85;;;1.73;;
64789;SDS011;51223;51.816;5.862;2023-08-06T03:10:07;1.98;;;1.58;;
64789;SDS011;51223;51.816;5.862;2023-08-06T03:12:33;1.98;;;1.73;;
64789;SDS011;51223;51.816;5.862;2023-08-06T03:14:59;5.63;;;1.90;;
64789;SDS011;51223;51.816;5.862;2023-08-06T03:17:24;2.75;;;1.40;;
64789;SDS011;51223;51.816;5.862;2023-08-06T03:19:50;2.85;;;1.70;;
64789;SDS011;51223;51.816;5.862;2023-08-06T03:22:15;2.50;;;1.75;;
64789;SDS011;51223;51.816;5.862;2023-08-06T03:24:41;3.13;;;2.33;;
64789;SDS011;51223;51.816;5.862;2023-08-06T03:27:06;2.17;;;1.75;;
64789;SDS011;51223;51.816;5.862;2023-08-06T03:29:32;2.38;;;1.83;;
64789;SDS011;51223;51.816;5.862;2023-08-06T03:31:57;2.72;;;2.10;;
64789;SDS011;51223;51.816;5.862;2023-08-06T03:34:23;2.70;;;2.05;;
64789;SDS011;51223;51.816;5.862;2023-08-06T03:36:49;4.88;;;2.03;;
64789;SDS011;51223;51.816;5.862;2023-08-06T03:39:14;1.88;;;1.67;;
64789;SDS011;51223;51.816;5.862;2023-08-06T03:41:40;3.28;;;2.47;;
64789;SDS011;51223;51.816;5.862;2023-08-06T03:44:05;2.28;;;1.67;;
64789;SDS011;51223;51.816;5.862;2023-08-06T03:46:31;1.55;;;1.30;;
64789;SDS011;51223;51.816;5.862;2023-08-06T03:49:00;3.25;;;2.35;;
64789;SDS011;51223;51.816;5.862;2023-08-06T03:51:26;5.32;;;2.40;;
64789;SDS011;51223;51.816;5.862;2023-08-06T03:53:51;1.60;;;1.50;;
64789;SDS011;51223;51.816;5.862;2023-08-06T03:56:17;3.00;;;1.90;;
64789;SDS011;51223;51.816;5.862;2023-08-06T03:58:42;5.03;;;2.10;;
64789;SDS011;51223;51.816;5.862;2023-08-06T04:01:08;3.08;;;1.98;;
64789;SDS011;51223;51.816;5.862;2023-08-06T04:03:33;3.10;;;2.42;;
64789;SDS011;51223;51.816;5.862;2023-08-06T04:05:59;4.03;;;2.08;;
64789;SDS011;51223;51.816;5.862;2023-08-06T04:08:26;3.85;;;2.63;;
64789;SDS011;51223;51.816;5.862;2023-08-06T04:10:52;8.65;;;3.20;;
64789;SDS011;51223;51.816;5.862;2023-08-06T04:13:18;3.50;;;2.53;;
64789;SDS011;51223;51.816;5.862;2023-08-06T04:15:43;3.72;;;2.65;;
64789;SDS011;51223;51.816;5.862;2023-08-06T04:18:09;3.88;;;2.20;;
64789;SDS011;51223;51.816;5.862;2023-08-06T04:20:34;5.80;;;3.13;;
64789;SDS011;51223;51.816;5.862;2023-08-06T04:23:04;4.32;;;3.10;;
64789;SDS011;51223;51.816;5.862;2023-08-06T04:25:31;4.28;;;2.83;;
64789;SDS011;51223;51.816;5.862;2023-08-06T04:27:56;3.92;;;2.78;;
64789;SDS011;51223;51.816;5.862;2023-08-06T04:30:22;7.60;;;3.75;;
64789;SDS011;51223;51.816;5.862;2023-08-06T04:32:49;9.85;;;3.20;;
64789;SDS011;51223;51.816;5.862;2023-08-06T04:35:15;7.20;;;4.10;;
64789;SDS011;51223;51.816;5.862;2023-08-06T04:37:40;5.10;;;2.70;;
64789;SDS011;51223;51.816;5.862;2023-08-06T04:40:06;5.05;;;3.17;;
64789;SDS011;51223;51.816;5.862;2023-08-06T04:42:32;2.88;;;2.20;;
64789;SDS011;51223;51.816;5.862;2023-08-06T04:44:57;11.43;;;3.08;;
64789;SDS011;51223;51.816;5.862;2023-08-06T04:47:23;6.72;;;4.15;;
64789;SDS011;51223;51.816;5.862;2023-08-06T04:49:48;4.88;;;2.65;;
64789;SDS011;51223;51.816;5.862;2023-08-06T04:52:14;5.05;;;3.35;;
64789;SDS011;51223;51.816;5.862;2023-08-06T04:54:39;4.80;;;3.42;;
64789;SDS011;51223;51.816;5.862;2023-08-06T04:57:05;8.20;;;4.10;;
64789;SDS011;51223;51.816;5.862;2023-08-06T04:59:31;7.70;;;4.43;;
64789;SDS011;51223;51.816;5.862;2023-08-06T05:01:56;4.30;;;2.95;;
64789;SDS011;51223;51.816;5.862;2023-08-06T05:04:22;5.40;;;3.85;;
64789;SDS011;51223;51.816;5.862;2023-08-06T05:06:47;4.03;;;3.13;;
64789;SDS011;51223;51.816;5.862;2023-08-06T05:09:13;7.22;;;4.53;;
64789;SDS011;51223;51.816;5.862;2023-08-06T05:11:39;4.95;;;3.78;;
64789;SDS011;51223;51.816;5.862;2023-08-06T05:14:04;8.07;;;3.78;;
64789;SDS011;51223;51.816;5.862;2023-08-06T05:16:30;6.60;;;3.72;;
64789;SDS011;51223;51.816;5.862;2023-08-06T05:18:55;8.13;;;4.63;;
64789;SDS011;51223;51.816;5.862;2023-08-06T05:21:21;8.23;;;4.13;;
64789;SDS011;51223;51.816;5.862;2023-08-06T05:23:47;5.22;;;3.20;;
64789;SDS011;51223;51.816;5.862;2023-08-06T05:26:12;7.57;;;4.25;;
64789;SDS011;51223;51.816;5.862;2023-08-06T05:28:40;6.07;;;3.65;;
64789;SDS011;51223;51.816;5.862;2023-08-06T05:31:06;7.18;;;4.40;;
64789;SDS011;51223;51.816;5.862;2023-08-06T05:33:32;5.65;;;3.72;;
64789;SDS011;51223;51.816;5.862;2023-08-06T05:35:57;6.70;;;2.95;;
64789;SDS011;51223;51.816;5.862;2023-08-06T05:38:23;5.38;;;3.85;;
64789;SDS011;51223;51.816;5.862;2023-08-06T05:40:49;6.53;;;4.25;;
64789;SDS011;51223;51.816;5.862;2023-08-06T05:43:14;4.57;;;3.30;;
64789;SDS011;51223;51.816;5.862;2023-08-06T05:45:43;6.63;;;3.75;;
64789;SDS011;51223;51.816;5.862;2023-08-06T05:48:09;5.20;;;3.78;;
64789;SDS011;51223;51.816;5.862;2023-08-06T05:50:34;6.63;;;3.55;;
64789;SDS011;51223;51.816;5.862;2023-08-06T05:53:00;3.80;;;2.88;;
64789;SDS011;51223;51.816;5.862;2023-08-06T05:55:26;4.25;;;3.10;;
64789;SDS011;51223;51.816;5.862;2023-08-06T05:57:51;8.88;;;4.03;;
64789;SDS011;51223;51.816;5.862;2023-08-06T06:00:18;4.47;;;3.03;;
64789;SDS011;51223;51.816;5.862;2023-08-06T06:02:44;5.22;;;3.78;;
64789;SDS011;51223;51.816;5.862;2023-08-06T06:05:09;6.10;;;4.20;;
64789;SDS011;51223;51.816;5.862;2023-08-06T06:07:35;5.93;;;4.10;;
64789;SDS011;51223;51.816;5.862;2023-08-06T06:10:00;7.63;;;4.45;;
64789;SDS011;51223;51.816;5.862;2023-08-06T06:12:26;4.43;;;3.35;;
64789;SDS011;51223;51.816;5.862;2023-08-06T06:14:51;5.00;;;3.67;;
64789;SDS011;51223;51.816;5.862;2023-08-06T06:17:17;9.10;;;3.63;;
64789;SDS011;51223;51.816;5.862;2023-08-06T06:19:43;6.55;;;4.07;;
64789;SDS011;51223;51.816;5.862;2023-08-06T06:22:08;3.25;;;2.28;;
64789;SDS011;51223;51.816;5.862;2023-08-06T06:24:34;6.68;;;3.15;;
64789;SDS011;51223;51.816;5.862;2023-08-06T06:26:59;4.63;;;3.20;;
64789;SDS011;51223;51.816;5.862;2023-08-06T06:29:25;9.52;;;3.05;;
64789;SDS011;51223;51.816;5.862;2023-08-06T06:31:51;4.80;;;2.35;;
64789;SDS011;51223;51.816;5.862;2023-08-06T06:34:16;4.32;;;2.60;;
64789;SDS011;51223;51.816;5.862;2023-08-06T06:36:42;4.60;;;2.95;;
64789;SDS011;51223;51.816;5.862;2023-08-06T06:39:07;2.22;;;2.03;;
64789;SDS011;51223;51.816;5.862;2023-08-06T06:41:33;4.60;;;3.70;;
64789;SDS011;51223;51.816;5.862;2023-08-06T06:43:59;3.45;;;2.83;;
64789;SDS011;51223;51.816;5.862;2023-08-06T06:46:24;6.75;;;2.88;;
64789;SDS011;51223;51.816;5.862;2023-08-06T06:48:50;4.47;;;3.05;;
64789;SDS011;51223;51.816;5.862;2023-08-06T06:51:15;2.95;;;2.55;;
64789;SDS011;51223;51.816;5.862;2023-08-06T06:53:41;1.70;;;1.13;;
64789;SDS011;51223;51.816;5.862;2023-08-06T06:56:07;7.72;;;3.38;;
64789;SDS011;51223;51.816;5.862;2023-08-06T06:58:32;5.38;;;3.67;;
64789;SDS011;51223;51.816;5.862;2023-08-06T07:00:58;5.22;;;2.58;;
64789;SDS011;51223;51.816;5.862;2023-08-06T07:03:24;3.75;;;2.53;;
64789;SDS011;51223;51.816;5.862;2023-08-06T07:05:49;4.88;;;3.25;;
64789;SDS011;51223;51.816;5.862;2023-08-06T07:08:15;6.28;;;3.22;;
64789;SDS011;51223;51.816;5.862;2023-08-06T07:10:41;4.80;;;3.67;;
64789;SDS011;51223;51.816;5.862;2023-08-06T07:13:07;3.47;;;2.65;;
64789;SDS011;51223;51.816;5.862;2023-08-06T07:15:32;3.50;;;2.70;;
64789;SDS011;51223;51.816;5.862;2023-08-06T07:17:58;4.72;;;2.95;;
64789;SDS011;51223;51.816;5.862;2023-08-06T07:20:24;4.15;;;2.70;;
64789;SDS011;51223;51.816;5.862;2023-08-06T07:22:49;4.78;;;3.33;;
64789;SDS011;51223;51.816;5.862;2023-08-06T07:25:15;7.18;;;3.05;;
64789;SDS011;51223;51.816;5.862;2023-08-06T07:27:41;2.97;;;2.03;;
64789;SDS011;51223;51.816;5.862;2023-08-06T07:30:07;4.85;;;2.85;;
64789;SDS011;51223;51.816;5.862;2023-08-06T07:32:33;3.20;;;2.20;;
64789;SDS011;51223;51.816;5.862;2023-08-06T07:34:58;4.50;;;2.60;;
64789;SDS011;51223;51.816;5.862;2023-08-06T07:37:28;3.88;;;2.28;;
64789;SDS011;51223;51.816;5.862;2023-08-06T07:39:54;2.47;;;2.00;;
64789;SDS011;51223;51.816;5.862;2023-08-06T07:42:20;2.63;;;1.85;;
64789;SDS011;51223;51.816;5.862;2023-08-06T07:44:56;2.97;;;2.22;;
64789;SDS011;51223;51.816;5.862;2023-08-06T07:47:21;2.08;;;1.63;;
64789;SDS011;51223;51.816;5.862;2023-08-06T07:49:47;3.03;;;1.95;;
64789;SDS011;51223;51.816;5.862;2023-08-06T07:52:13;1.90;;;1.52;;
64789;SDS011;51223;51.816;5.862;2023-08-06T07:54:38;1.23;;;1.13;;
64789;SDS011;51223;51.816;5.862;2023-08-06T07:57:04;2.13;;;1.10;;
64789;SDS011;51223;51.816;5.862;2023-08-06T07:59:29;2.58;;;1.40;;
64789;SDS011;51223;51.816;5.862;2023-08-06T08:01:55;1.90;;;1.00;;
64789;SDS011;51223;51.816;5.862;2023-08-06T08:04:21;0.82;;;0.82;;
64789;SDS011;51223;51.816;5.862;2023-08-06T08:06:47;4.63;;;1.98;;
64789;SDS011;51223;51.816;5.862;2023-08-06T08:09:13;3.13;;;1.95;;
64789;SDS011;51223;51.816;5.862;2023-08-06T08:11:39;3.83;;;2.20;;
64789;SDS011;51223;51.816;5.862;2023-08-06T08:14:05;2.58;;;1.67;;
64789;SDS011;51223;51.816;5.862;2023-08-06T08:16:30;1.95;;;1.73;;
64789;SDS011;51223;51.816;5.862;2023-08-06T08:18:56;4.35;;;1.40;;
64789;SDS011;51223;51.816;5.862;2023-08-06T08:21:21;3.42;;;2.13;;
64789;SDS011;51223;51.816;5.862;2023-08-06T08:23:49;2.03;;;1.63;;
64789;SDS011;51223;51.816;5.862;2023-08-06T08:26:15;1.55;;;1.45;;
64789;SDS011;51223;51.816;5.862;2023-08-06T08:28:40;3.97;;;2.00;;
64789;SDS011;51223;51.816;5.862;2023-08-06T08:31:09;2.70;;;1.92;;
64789;SDS011;51223;51.816;5.862;2023-08-06T08:33:35;0.85;;;0.82;;
64789;SDS011;51223;51.816;5.862;2023-08-06T08:36:00;3.00;;;2.00;;
64789;SDS011;51223;51.816;5.862;2023-08-06T08:38:26;3.15;;;1.88;;
64789;SDS011;51223;51.816;5.862;2023-08-06T08:40:52;2.10;;;1.42;;
64789;SDS011;51223;51.816;5.862;2023-08-06T08:43:20;7.05;;;2.40;;
64789;SDS011;51223;51.816;5.862;2023-08-06T08:45:46;2.08;;;1.42;;
64789;SDS011;51223;51.816;5.862;2023-08-06T08:48:15;1.70;;;1.20;;
64789;SDS011;51223;51.816;5.862;2023-08-06T08:50:42;2.67;;;2.08;;
64789;SDS011;51223;51.816;5.862;2023-08-06T08:53:08;3.08;;;2.15;;
64789;SDS011;51223;51.816;5.862;2023-08-06T08:55:35;5.88;;;2.05;;
64789;SDS011;51223;51.816;5.862;2023-08-06T08:58:02;3.80;;;1.77;;
64789;SDS011;51223;51.816;5.862;2023-08-06T09:00:28;4.82;;;1.50;;
64789;SDS011;51223;51.816;5.862;2023-08-06T09:02:54;2.67;;;2.03;;
64789;SDS011;51223;51.816;5.862;2023-08-06T09:05:20;5.30;;;2.47;;
64789;SDS011;51223;51.816;5.862;2023-08-06T09:07:47;5.25;;;3.28;;
64789;SDS011;51223;51.816;5.862;2023-08-06T09:10:13;3.58;;;2.53;;
64789;SDS011;51223;51.816;5.862;2023-08-06T09:12:41;3.55;;;2.75;;
64789;SDS011;51223;51.816;5.862;2023-08-06T09:15:06;1.02;;;0.80;;
64789;SDS011;51223;51.816;5.862;2023-08-06T09:17:32;1.05;;;0.77;;
64789;SDS011;51223;51.816;5.862;2023-08-06T09:19:58;0.40;;;0.25;;
64789;SDS011;51223;51.816;5.862;2023-08-06T09:22:24;1.65;;;0.77;;
64789;SDS011;51223;51.816;5.862;2023-08-06T09:24:51;0.10;;;0.10;;
64789;SDS011;51223;51.816;5.862;2023-08-06T09:27:16;0.30;;;0.30;;
64789;SDS011;51223;51.816;5.862;2023-08-06T09:29:42;0.55;;;0.28;;
64789;SDS011;51223;51.816;5.862;2023-08-06T09:32:08;0.43;;;0.43;;
64789;SDS011;51223;51.816;5.862;2023-08-06T09:34:34;0.52;;;0.35;;
64789;SDS011;51223;51.816;5.862;2023-08-06T09:37:00;0.43;;;0.22;;
64789;SDS011;51223;51.816;5.862;2023-08-06T09:39:29;0.60;;;0.30;;
64789;SDS011;51223;51.816;5.862;2023-08-06T09:41:55;0.20;;;0.20;;
64789;SDS011;51223;51.816;5.862;2023-08-06T09:44:21;0.45;;;0.32;;
64789;SDS011;51223;51.816;5.862;2023-08-06T09:46:49;0.00;;;0.00;;
64789;SDS011;51223;51.816;5.862;2023-08-06T09:49:15;0.82;;;0.70;;
64789;SDS011;51223;51.816;5.862;2023-08-06T09:51:41;0.50;;;0.50;;
64789;SDS011;51223;51.816;5.862;2023-08-06T09:54:06;1.40;;;0.52;;
64789;SDS011;51223;51.816;5.862;2023-08-06T09:56:33;0.60;;;0.47;;
64789;SDS011;51223;51.816;5.862;2023-08-06T09:59:05;0.10;;;0.10;;
64789;SDS011;51223;51.816;5.862;2023-08-06T10:01:34;0.77;;;0.50;;
64789;SDS011;51223;51.816;5.862;2023-08-06T10:04:00;0.40;;;0.32;;
64789;SDS011;51223;51.816;5.862;2023-08-06T10:06:26;0.30;;;0.30;;
64789;SDS011;51223;51.816;5.862;2023-08-06T10:08:53;0.30;;;0.30;;
64789;SDS011;51223;51.816;5.862;2023-08-06T10:11:19;0.43;;;0.30;;
64789;SDS011;51223;51.816;5.862;2023-08-06T10:13:47;1.17;;;0.70;;
64789;SDS011;51223;51.816;5.862;2023-08-06T10:16:13;0.52;;;0.52;;
64789;SDS011;51223;51.816;5.862;2023-08-06T10:18:40;0.30;;;0.30;;
64789;SDS011;51223;51.816;5.862;2023-08-06T10:21:09;0.52;;;0.35;;
64789;SDS011;51223;51.816;5.862;2023-08-06T10:23:35;0.52;;;0.47;;
64789;SDS011;51223;51.816;5.862;2023-08-06T10:26:01;0.28;;;0.28;;
64789;SDS011;51223;51.816;5.862;2023-08-06T10:28:38;2.55;;;0.70;;
64789;SDS011;51223;51.816;5.862;2023-08-06T10:31:04;0.38;;;0.32;;
64789;SDS011;51223;51.816;5.862;2023-08-06T10:33:43;0.52;;;0.52;;
64789;SDS011;51223;51.816;5.862;2023-08-06T10:36:09;0.52;;;0.30;;
64789;SDS011;51223;51.816;5.862;2023-08-06T10:38:36;0.40;;;0.40;;
64789;SDS011;51223;51.816;5.862;2023-08-06T10:41:09;0.70;;;0.65;;
64789;SDS011;51223;51.816;5.862;2023-08-06T10:43:40;0.75;;;0.38;;
64789;SDS011;51223;51.816;5.862;2023-08-06T10:46:09;0.38;;;0.30;;
64789;SDS011;51223;51.816;5.862;2023-08-06T10:48:35;0.77;;;0.45;;
64789;SDS011;51223;51.816;5.862;2023-08-06T10:51:02;1.27;;;0.98;;
64789;SDS011;51223;51.816;5.862;2023-08-06T10:53:28;1.17;;;0.60;;
64789;SDS011;51223;51.816;5.862;2023-08-06T10:55:53;1.02;;;0.68;;
64789;SDS011;51223;51.816;5.862;2023-08-06T10:58:19;0.57;;;0.52;;
64789;SDS011;51223;51.816;5.862;2023-08-06T11:00:45;1.77;;;1.00;;
64789;SDS011;51223;51.816;5.862;2023-08-06T11:03:11;1.30;;;0.90;;
64789;SDS011;51223;51.816;5.862;2023-08-06T11:05:36;1.83;;;1.00;;
64789;SDS011;51223;51.816;5.862;2023-08-06T11:08:02;0.65;;;0.65;;
64789;SDS011;51223;51.816;5.862;2023-08-06T11:10:28;2.33;;;0.90;;
64789;SDS011;51223;51.816;5.862;2023-08-06T11:12:53;0.90;;;0.82;;
64789;SDS011;51223;51.816;5.862;2023-08-06T11:15:20;0.75;;;0.73;;
64789;SDS011;51223;51.816;5.862;2023-08-06T11:17:45;1.27;;;0.85;;
64789;SDS011;51223;51.816;5.862;2023-08-06T11:20:11;0.85;;;0.82;;
64789;SDS011;51223;51.816;5.862;2023-08-06T11:22:37;1.23;;;0.98;;
64789;SDS011;51223;51.816;5.862;2023-08-06T11:25:03;1.42;;;0.60;;
64789;SDS011;51223;51.816;5.862;2023-08-06T11:27:29;0.90;;;0.65;;
64789;SDS011;51223;51.816;5.862;2023-08-06T11:29:55;0.70;;;0.43;;
64789;SDS011;51223;51.816;5.862;2023-08-06T11:32:20;1.10;;;1.00;;
64789;SDS011;51223;51.816;5.862;2023-08-06T11:34:46;1.25;;;0.95;;
64789;SDS011;51223;51.816;5.862;2023-08-06T11:37:11;1.08;;;0.93;;
64789;SDS011;51223;51.816;5.862;2023-08-06T11:39:38;0.38;;;0.38;;
64789;SDS011;51223;51.816;5.862;2023-08-06T11:42:04;3.03;;;0.73;;
64789;SDS011;51223;51.816;5.862;2023-08-06T11:44:31;0.95;;;0.75;;
64789;SDS011;51223;51.816;5.862;2023-08-06T11:46:59;1.38;;;0.68;;
64789;SDS011;51223;51.816;5.862;2023-08-06T11:49:39;0.52;;;0.52;;
64789;SDS011;51223;51.816;5.862;2023-08-06T11:54:49;0.65;;;0.57;;
64789;SDS011;51223;51.816;5.862;2023-08-06T11:57:24;0.80;;;0.60;;
64789;SDS011;51223;51.816;5.862;2023-08-06T11:59:50;0.65;;;0.60;;
64789;SDS011;51223;51.816;5.862;2023-08-06T12:02:15;1.52;;;0.95;;
64789;SDS011;51223;51.816;5.862;2023-08-06T12:09:51;2.40;;;1.35;;
64789;SDS011;51223;51.816;5.862;2023-08-06T12:12:16;0.90;;;0.82;;
64789;SDS011;51223;51.816;5.862;2023-08-06T12:14:42;2.20;;;0.80;;
64789;SDS011;51223;51.816;5.862;2023-08-06T12:17:08;1.10;;;0.82;;
64789;SDS011;51223;51.816;5.862;2023-08-06T12:19:33;0.57;;;0.43;;
64789;SDS011;51223;51.816;5.862;2023-08-06T12:21:59;1.27;;;0.75;;
64789;SDS011;51223;51.816;5.862;2023-08-06T12:24:24;1.15;;;0.90;;
64789;SDS011;51223;51.816;5.862;2023-08-06T12:26:50;0.63;;;0.32;;
64789;SDS011;51223;51.816;5.862;2023-08-06T12:29:15;1.10;;;0.88;;
64789;SDS011;51223;51.816;5.862;2023-08-06T12:31:41;0.90;;;0.50;;
64789;SDS011;51223;51.816;5.862;2023-08-06T12:34:07;1.98;;;1.10;;
64789;SDS011;51223;51.816;5.862;2023-08-06T12:36:32;0.50;;;0.43;;
64789;SDS011;51223;51.816;5.862;2023-08-06T12:38:58;1.05;;;0.85;;
64789;SDS011;51223;51.816;5.862;2023-08-06T12:41:23;0.68;;;0.55;;
64789;SDS011;51223;51.816;5.862;2023-08-06T12:43:49;1.52;;;0.68;;
64789;SDS011;51223;51.816;5.862;2023-08-06T12:46:15;0.35;;;0.28;;
64789;SDS011;51223;51.816;5.862;2023-08-06T12:48:41;1.85;;;1.17;;
64789;SDS011;51223;51.816;5.862;2023-08-06T12:51:06;0.63;;;0.30;;
64789;SDS011;51223;51.816;5.862;2023-08-06T12:53:32;0.55;;;0.40;;
64789;SDS011;51223;51.816;5.862;2023-08-06T12:55:57;1.17;;;0.93;;
64789;SDS011;51223;51.816;5.862;2023-08-06T12:58:23;0.75;;;0.60;;
64789;SDS011;51223;51.816;5.862;2023-08-06T13:00:49;0.75;;;0.65;;
64789;SDS011;51223;51.816;5.862;2023-08-06T13:03:14;0.88;;;0.60;;
64789;SDS011;51223;51.816;5.862;2023-08-06T13:05:40;1.45;;;0.77;;
64789;SDS011;51223;51.816;5.862;2023-08-06T13:08:05;2.58;;;0.93;;
64789;SDS011;51223;51.816;5.862;2023-08-06T13:10:31;0.55;;;0.52;;
64789;SDS011;51223;51.816;5.862;2023-08-06T13:12:56;0.98;;;0.80;;
64789;SDS011;51223;51.816;5.862;2023-08-06T13:15:22;0.38;;;0.38;;
64789;SDS011;51223;51.816;5.862;2023-08-06T13:17:48;0.52;;;0.50;;
64789;SDS011;51223;51.816;5.862;2023-08-06T13:20:13;0.80;;;0.65;;
64789;SDS011;51223;51.816;5.862;2023-08-06T13:22:39;2.33;;;0.80;;
64789;SDS011;51223;51.816;5.862;2023-08-06T13:25:05;1.80;;;0.88;;
64789;SDS011;51223;51.816;5.862;2023-08-06T13:27:30;1.10;;;0.55;;
64789;SDS011;51223;51.816;5.862;2023-08-06T13:29:56;1.17;;;1.02;;
64789;SDS011;51223;51.816;5.862;2023-08-06T13:32:21;1.85;;;0.70;;
64789;SDS011;51223;51.816;5.862;2023-08-06T13:34:47;0.77;;;0.63;;
64789;SDS011;51223;51.816;5.862;2023-08-06T13:37:12;3.03;;;0.40;;
64789;SDS011;51223;51.816;5.862;2023-08-06T13:39:38;2.90;;;0.80;;
64789;SDS011;51223;51.816;5.862;2023-08-06T13:42:04;3.90;;;1.40;;
64789;SDS011;51223;51.816;5.862;2023-08-06T13:44:29;0.80;;;0.57;;
64789;SDS011;51223;51.816;5.862;2023-08-06T13:46:55;0.82;;;0.65;;
64789;SDS011;51223;51.816;5.862;2023-08-06T13:49:20;0.60;;;0.50;;
64789;SDS011;51223;51.816;5.862;2023-08-06T13:51:46;1.77;;;0.93;;
64789;SDS011;51223;51.816;5.862;2023-08-06T13:54:11;0.47;;;0.40;;
64789;SDS011;51223;51.816;5.862;2023-08-06T13:56:37;0.32;;;0.32;;
64789;SDS011;51223;51.816;5.862;2023-08-06T13:59:03;0.77;;;0.50;;
64789;SDS011;51223;51.816;5.862;2023-08-06T14:01:29;0.52;;;0.40;;
64789;SDS011;51223;51.816;5.862;2023-08-06T14:03:54;0.38;;;0.30;;
64789;SDS011;51223;51.816;5.862;2023-08-06T14:06:20;0.70;;;0.70;;
64789;SDS011;51223;51.816;5.862;2023-08-06T14:08:46;0.55;;;0.38;;
64789;SDS011;51223;51.816;5.862;2023-08-06T14:11:11;0.80;;;0.30;;
64789;SDS011;51223;51.816;5.862;2023-08-06T14:13:37;0.20;;;0.20;;
64789;SDS011;51223;51.816;5.862;2023-08-06T14:16:02;0.63;;;0.28;;
64789;SDS011;51223;51.816;5.862;2023-08-06T14:18:28;0.57;;;0.43;;
64789;SDS011;51223;51.816;5.862;2023-08-06T14:20:54;2.50;;;0.30;;
64789;SDS011;51223;51.816;5.862;2023-08-06T14:23:19;2.92;;;0.95;;
64789;SDS011;51223;51.816;5.862;2023-08-06T14:25:45;0.32;;;0.32;;
64789;SDS011;51223;51.816;5.862;2023-08-06T14:28:10;2.72;;;1.08;;
64789;SDS011;51223;51.816;5.862;2023-08-06T14:30:36;0.70;;;0.25;;
64789;SDS011;51223;51.816;5.862;2023-08-06T14:33:02;1.95;;;0.77;;
64789;SDS011;51223;51.816;5.862;2023-08-06T14:35:28;0.75;;;0.55;;
64789;SDS011;51223;51.816;5.862;2023-08-06T14:37:54;0.80;;;0.43;;
64789;SDS011;51223;51.816;5.862;2023-08-06T14:40:19;0.40;;;0.40;;
64789;SDS011;51223;51.816;5.862;2023-08-06T14:42:45;0.95;;;0.57;;
64789;SDS011;51223;51.816;5.862;2023-08-06T14:45:10;3.00;;;0.60;;
64789;SDS011;51223;51.816;5.862;2023-08-06T14:47:36;0.70;;;0.70;;
64789;SDS011;51223;51.816;5.862;2023-08-06T14:50:01;1.08;;;0.47;;
64789;SDS011;51223;51.816;5.862;2023-08-06T14:52:27;1.25;;;0.73;;
64789;SDS011;51223;51.816;5.862;2023-08-06T14:54:53;1.38;;;0.60;;